Home > Products > Valid Products > MTR

000
SAUS41 KBOX 012255
MTRMQE
METAR KMQE 012254Z AUTO 28007KT 27/19 A2993 RMK AO1 SLP140 T02720189





000
SAUS41 KBOX 012155
MTRMQE
METAR KMQE 012154Z AUTO 27009KT 29/19 A2993 RMK AO1 SLP140 T02890189





000
SAUS41 KBOX 012055
MTRMQE
METAR KMQE 012054Z AUTO 30007KT 30/19 A2993 RMK AO1 SLP141 T03000189
56007





000
SAUS41 KBOX 011955
MTRMQE
METAR KMQE 011954Z AUTO 29008KT 30/19 A2993 RMK AO1 SLP142 T03000189





000
SAUS41 KBOX 011855
MTRMQE
METAR KMQE 011854Z AUTO 30007KT 29/19 A2995 RMK AO1 SLP145 T02940194





000
SAUS41 KBOX 011755
MTRMQE
METAR KMQE 011754Z AUTO 24007G16KT 210V270 31/19 A2996 RMK AO1
SLP149 T03110194 10311 20211 56011





000
SAUS41 KBOX 011655
MTRMQE
METAR KMQE 011654Z AUTO 25007KT 30/20 A2996 RMK AO1 SLP150 T03000200





000
SAUS41 KBOX 011555
MTRMQE
METAR KMQE 011554Z AUTO VRB03KT 28/20 A2997 RMK AO1 SLP155 T02830200





000
SAUS41 KBOX 011455
MTRMQE
METAR KMQE 011454Z AUTO 00000KT 27/20 A2999 RMK AO1 SLP161 T02720200
58004





000
SAUS41 KBOX 011355
MTRMQE
METAR KMQE 011354Z AUTO 26004KT 25/22 A2999 RMK AO1 SLP162 T02500222





000
SAUS41 KBOX 011255
MTRMQE
METAR KMQE 011254Z AUTO 26005KT 22/22 A3000 RMK AO1 SLP165 T02220217





000
SAUS41 KBOX 011155
MTRMQE
METAR KMQE 011154Z AUTO 23006KT 21/21 A3000 RMK AO1 SLP165 70006
T02110211 10211 20206 50008





000
SAUS41 KBOX 011055
MTRMQE
METAR KMQE 011054Z AUTO 23007KT 21/21 A3000 RMK AO1 SLP166 T02060206





000
SAUS41 KBOX 010955
MTRMQE
METAR KMQE 010954Z AUTO 25009KT 21/21 A2999 RMK AO1 SLP162 T02060206





000
SAUS41 KBOX 010855
MTRMQE
METAR KMQE 010854Z AUTO 23008KT 21/21 A2998 RMK AO1 SLP157 T02110211
53005





000
SAUS41 KBOX 010755
MTRMQE
METAR KMQE 010754Z AUTO 24008KT 21/21 A2997 RMK AO1 SLP154 T02110211





000
SAUS41 KBOX 010655
MTRMQE
METAR KMQE 010654Z AUTO 23010KT 21/21 A2997 RMK AO1 SLP155 T02110211





000
SAUS41 KBOX 010555
MTRMQE
METAR KMQE 010554Z AUTO 23009KT 21/21 A2996 RMK AO1 SLP152 60006
T02110211 10239 20211 56002





000
SAUS41 KBOX 010456
MTRMQE
METAR KMQE 010454Z AUTO 22011KT 22/21 A2997 RMK AO1 SLP153 T02170211
402890178





000
SAUS41 KBOX 010355
MTRMQE
METAR KMQE 010354Z AUTO 21013KT 22/22 A2997 RMK AO1 SLP153 T02170217





000
SAUS41 KBOX 010255
MTRMQE
METAR KMQE 010254Z AUTO 22009KT 22/22 A2997 RMK AO1 SLP154 P0001
60006 T02220222 58005





000
SAUS41 KBOX 010155
MTRMQE
METAR KMQE 010154Z AUTO 21012KT 22/22 A2998 RMK AO1 SLP158 P0002
T02220222





000
SAUS41 KBOX 010155
MTRMQE
METAR KMQE 010154Z AUTO 21012KT 22/22 A2998 RMK AO1 SLP158 P0002
T02220222





000
SAUS41 KBOX 010055
MTRMQE
METAR KMQE 010054Z AUTO 19011KT 23/22 A2999 RMK AO1 SLP161 P0003
T02280222





000
SAUS41 KBOX 312355
MTRMQE
METAR KMQE 312354Z AUTO 19010G17KT 24/22 A2998 RMK AO1 SLP159
T02390222 10289 20239 55000





000
SAUS41 KBOX 312255
MTRMQE
METAR KMQE 312254Z AUTO 19013G19KT 25/22 A2998 RMK AO1 SLP158
T02500217





000
SAUS41 KBOX 312155
MTRMQE
METAR KMQE 312154Z AUTO 20009KT 27/21 A2999 RMK AO1 SLP160 T02670211





000
SAUS41 KBOX 312055
MTRMQE
METAR KMQE 312054Z AUTO 20011G16KT 29/22 A2998 RMK AO1 SLP159
T02890217 56016





000
SAUS41 KBOX 311955
MTRMQE
METAR KMQE 311954Z AUTO 22011G19KT 27/22 A3000 RMK AO1 SLP164
T02670217





000
SAUS41 KBOX 311855
MTRMQE
METAR KMQE 311854Z AUTO 22014G22KT 26/21 A3001 RMK AO1 PK WND
21026/1800 SLP169 T02610211





000
SAUS41 KBOX 311755
MTRMQE
METAR KMQE 311754Z AUTO 23017G22KT 26/21 A3003 RMK AO1 SLP177
T02610211 10267 20211 56012





000
SAUS41 KBOX 311655
MTRMQE
METAR KMQE 311654Z AUTO 24012G21KT 26/21 A3004 RMK AO1 SLP180
T02610211





000
SAUS41 KBOX 311555
MTRMQE
METAR KMQE 311554Z AUTO 22015G20KT 26/21 A3006 RMK AO1 SLP185
T02560206





000
SAUS41 KBOX 311455
MTRMQE
METAR KMQE 311454Z AUTO 23012G22KT 26/20 A3007 RMK AO1 SLP189
T02560200 58007





000
SAUS41 KBOX 311355
MTRMQE
METAR KMQE 311354Z AUTO 23013G21KT 24/19 A3008 RMK AO1 SLP193
T02390194





000
SAUS41 KBOX 311255
MTRMQE
METAR KMQE 311254Z AUTO 21015G20KT 22/19 A3009 RMK AO1 SLP196
T02220189





000
SAUS41 KBOX 311155
MTRMQE
METAR KMQE 311154Z AUTO 21017G21KT 21/19 A3009 RMK AO1 SLP197
T02110189 10211 20178 58004





000
SAUS41 KBOX 311055
MTRMQE
METAR KMQE 311054Z AUTO 20013G20KT 20/18 A3009 RMK AO1 SLP199
T02000183





000
SAUS41 KBOX 310955
MTRMQE
METAR KMQE 310954Z AUTO 20013G21KT 19/18 A3010 RMK AO1 SLP199
T01940178





000
SAUS41 KBOX 310855
MTRMQE
METAR KMQE 310854Z AUTO 20015G21KT 19/18 A3010 RMK AO1 SLP200
T01940178 56010





000
SAUS41 KBOX 310755
MTRMQE
METAR KMQE 310754Z AUTO 21015G22KT 19/18 A3011 RMK AO1 SLP202
T01890178





000
SAUS41 KBOX 310655
MTRMQE
METAR KMQE 310654Z AUTO 21016KT 19/17 A3012 RMK AO1 SLP207 T01890172





000
SAUS41 KBOX 310555
MTRMQE
METAR KMQE 310554Z AUTO 20016G21KT 18/17 A3013 RMK AO1 SLP211
T01780167 10189 20172 57009





000
SAUS41 KBOX 310456
MTRMQE
METAR KMQE 310454Z AUTO 19012KT 17/16 A3014 RMK AO1 SLP214 T01720161
402500128





000
SAUS41 KBOX 310355
MTRMQE
METAR KMQE 310354Z AUTO 19013KT 17/16 A3015 RMK AO1 SLP217 T01720156





000
SAUS41 KBOX 310255
MTRMQE
METAR KMQE 310254Z AUTO 20013KT 17/15 A3016 RMK AO1 SLP221 T01720150
50000





000
SAUS41 KBOX 310155
MTRMQE
METAR KMQE 310154Z AUTO 20014G20KT 18/15 A3017 RMK AO1 SLP224
T01780150





000
SAUS41 KBOX 310055
MTRMQE
METAR KMQE 310054Z AUTO 19014G20KT 18/16 A3017 RMK AO1 SLP226
T01780156





000
SAUS41 KBOX 302355
MTRMQE
METAR KMQE 302354Z AUTO 18014G24KT 19/15 A3016 RMK AO1 SLP222
T01890150 10250 20189 56006





000
SAUS41 KBOX 302255
MTRMQE
METAR KMQE 302254Z AUTO 19015G22KT 20/14 A3016 RMK AO1 SLP224
T02000144





000
SAUS41 KBOX 302155
MTRMQE
METAR KMQE 302154Z AUTO 19009G20KT 22/14 A3017 RMK AO1 SLP226
T02170144





000
SAUS41 KBOX 302055
MTRMQE
METAR KMQE 302054Z AUTO 18011G18KT 23/13 A3018 RMK AO1 SLP228
T02330133 56020





000
SAUS41 KBOX 301956
MTRMQE
METAR KMQE 301954Z AUTO 19008G20KT 25/12 A3019 RMK AO1 SLP232
T02500122





000
SAUS41 KBOX 301855
MTRMQE
METAR KMQE 301854Z AUTO 23012G17KT 25/11 A3021 RMK AO1 SLP239
T02500111





000
SAUS41 KBOX 301755
MTRMQE
METAR KMQE 301754Z AUTO VRB06G16KT 24/11 A3024 RMK AO1 SLP248
T02440106 10250 20156 56016





000
SAUS41 KBOX 301656
MTRMQE
METAR KMQE 301654Z AUTO 20009G18KT 24/11 A3025 RMK AO1 SLP252
T02390111





000
SAUS41 KBOX 301555
MTRMQE
METAR KMQE 301554Z AUTO 19007KT 23/12 A3027 RMK AO1 SLP259 T02330122





000
SAUS41 KBOX 301455
MTRMQE
METAR KMQE 301454Z AUTO 20010KT 22/12 A3029 RMK AO1 SLP265 T02170122
56006





000
SAUS41 KBOX 301355
MTRMQE
METAR KMQE 301354Z AUTO 20009KT 19/13 A3030 RMK AO1 SLP268 T01940133





000
SAUS41 KBOX 301255
MTRMQE
METAR KMQE 301254Z AUTO 18008KT 150V220 18/14 A3030 RMK AO1 SLP269
T01780139





000
SAUS41 KBOX 301155
MTRMQE
METAR KMQE 301154Z AUTO 17007KT 16/13 A3031 RMK AO1 SLP272 T01560133
10156 20128 51007





000
SAUS41 KBOX 301055
MTRMQE
METAR KMQE 301054Z AUTO 18010KT 14/13 A3031 RMK AO1 SLP272 T01390128





000
SAUS41 KBOX 300955
MTRMQE
METAR KMQE 300954Z AUTO 17009KT 13/12 A3029 RMK AO1 SLP267 T01280122





000
SAUS41 KBOX 300855
MTRMQE
METAR KMQE 300854Z AUTO 17009KT 13/13 A3029 RMK AO1 SLP265 T01330128
55000





000
SAUS41 KBOX 300755
MTRMQE
METAR KMQE 300754Z AUTO 18009KT 13/13 A3029 RMK AO1 SLP265 T01330128





000
SAUS41 KBOX 300655
MTRMQE
METAR KMQE 300654Z AUTO 18010KT 14/12 A3029 RMK AO1 SLP265 T01390122





000
SAUS41 KBOX 300556
MTRMQE
METAR KMQE 300554Z AUTO 18009KT 14/12 A3029 RMK AO1 SLP266 T01390122
10161 20139 53004





000
SAUS41 KBOX 300456
MTRMQE
METAR KMQE 300454Z AUTO 17008KT 14/12 A3028 RMK AO1 SLP262 T01440117
402280122





000
SAUS41 KBOX 300355
MTRMQE
METAR KMQE 300354Z AUTO 17009KT 14/12 A3027 RMK AO1 SLP261 T01440117





000
SAUS41 KBOX 300255
MTRMQE
METAR KMQE 300254Z AUTO 17007KT 14/12 A3028 RMK AO1 SLP262 T01440122
52013





000
SAUS41 KBOX 300155
MTRMQE
METAR KMQE 300154Z AUTO 15007KT 14/12 A3026 RMK AO1 SLP258 T01440117





000
SAUS41 KBOX 300055
MTRMQE
METAR KMQE 300054Z AUTO 11010KT 15/12 A3025 RMK AO1 SLP252 T01500117





000
SAUS41 KBOX 292355
MTRMQE
METAR KMQE 292354Z AUTO 13009KT 16/12 A3024 RMK AO1 SLP249 T01610122
10228 20161 53013





    US Dept of Commerce
    National Oceanic and Atmospheric Administration
    National Weather Service
    1325 East West Highway
    Silver Spring, MD 20910
    Page Author: NWS Internet Services Team
Disclaimer
Information Quality
Credits
Glossary
Privacy Policy
Freedom of Information Act (FOIA)
About Us
Career Opportunities